Time;durP1;ratioP1;P1;durP2;ratioP2;P2;SDS_P1;SDS_P2;PMS_P1;PMS_P2;Temp;Humidity;BMP_temperature;BMP_pressure;BME280_temperature;BME280_humidity;BME280_pressure;Samples;Min_cycle;Max_cycle;Signal;HPM_P1;HPM_P2
2023/10/13 00:00:49;;;;;;;20.05;12.27;;;;;;;;;;2082268;28;20036;-73
2023/10/13 00:02:10;;;;;;;24.02;12.65;;;;;;;;;;2083147;28;20037;-73
2023/10/13 00:03:31;;;;;;;23.40;12.07;;;;;;;;;;2082878;28;20037;-74
2023/10/13 00:04:52;;;;;;;18.02;10.70;;;;;;;;;;2081696;28;20451;-73
2023/10/13 00:06:13;;;;;;;21.30;12.60;;;;;;;;;;2081881;28;20033;-73
2023/10/13 00:07:34;;;;;;;23.48;13.10;;;;;;;;;;2082021;28;20432;-73
2023/10/13 00:08:55;;;;;;;26.45;11.77;;;;;;;;;;2087011;28;20025;-73
2023/10/13 00:10:18;;;;;;;20.95;13.18;;;;;;;;;;2086238;28;20051;-73
2023/10/13 00:11:40;;;;;;;24.20;12.32;;;;;;;;;;2081355;28;20477;-73
2023/10/13 00:13:15;;;;;;;;;;;;;;;;;;2082110;28;20052;-73
2023/10/13 00:14:40;;;;;;;23.02;13.15;;;;;;;;;;2082596;28;20245;-74
2023/10/13 00:16:03;;;;;;;22.77;12.52;;;;;;;;;;2083831;28;20033;-73
2023/10/13 00:17:24;;;;;;;25.30;13.60;;;;;;;;;;2093230;28;20035;-72
2023/10/13 00:18:45;;;;;;;17.50;11.73;;;;;;;;;;2099957;28;20028;-73
2023/10/13 00:20:12;;;;;;;26.17;12.70;;;;;;;;;;2092170;28;20033;-74
2023/10/13 00:21:35;;;;;;;25.35;11.90;;;;;;;;;;2081900;28;20029;-72
2023/10/13 00:22:57;;;;;;;20.38;13.27;;;;;;;;;;2096519;28;20029;-72
2023/10/13 00:24:23;;;;;;;22.73;12.13;;;;;;;;;;2075281;28;20033;-73
2023/10/13 00:25:49;;;;;;;22.77;13.13;;;;;;;;;;2078066;28;20030;-72
2023/10/13 00:27:24;;;;;;;21.08;10.82;;;;;;;;;;2082118;28;20124;-74
2023/10/13 00:28:48;;;;;;;22.40;10.98;;;;;;;;;;2082695;28;20083;-72
2023/10/13 00:30:17;;;;;;;20.83;11.63;;;;;;;;;;2080770;28;20032;-73
2023/10/13 00:31:42;;;;;;;25.88;11.98;;;;;;;;;;2085761;28;20029;-73
2023/10/13 00:33:04;;;;;;;24.45;11.70;;;;;;;;;;2097080;28;20036;-74
2023/10/13 00:34:28;;;;;;;22.33;12.90;;;;;;;;;;2077032;28;20026;-72
2023/10/13 00:35:51;;;;;;;25.17;11.90;;;;;;;;;;2080545;28;20025;-73
2023/10/13 00:37:27;;;;;;;25.75;12.35;;;;;;;;;;2078420;28;20439;-72
2023/10/13 00:38:52;;;;;;;21.48;12.60;;;;;;;;;;2081475;28;20481;-72
2023/10/13 00:41:53;;;;;;;20.85;11.55;;;;;;;;;;2075085;28;20055;-73
2023/10/13 00:44:43;;;;;;;21.38;11.30;;;;;;;;;;2073148;28;20034;-73
2023/10/13 00:46:07;;;;;;;21.27;11.25;;;;;;;;;;2073270;28;20459;-73
2023/10/13 00:47:48;;;;;;;20.00;10.63;;;;;;;;;;2077116;28;20025;-75
2023/10/13 00:49:09;;;;;;;22.83;11.23;;;;;;;;;;2072769;28;20421;-76
2023/10/13 00:50:30;;;;;;;17.48;10.77;;;;;;;;;;2085356;28;20103;-75
2023/10/13 00:51:51;;;;;;;21.42;11.55;;;;;;;;;;2075464;28;20030;-76
2023/10/13 00:53:12;;;;;;;22.38;10.80;;;;;;;;;;2065471;28;20043;-76
2023/10/13 00:54:36;;;;;;;21.50;11.13;;;;;;;;;;2072233;28;20030;-75
2023/10/13 00:55:57;;;;;;;24.90;11.52;;;;;;;;;;2072249;28;20030;-75
2023/10/13 00:57:26;;;;;;;21.33;10.70;;;;;;;;;;2078203;28;20021;-75
2023/10/13 00:58:50;;;;;;;21.38;10.75;;;;;;;;;;2073698;28;20034;-75
2023/10/13 01:00:24;;;;;;;20.95;11.05;;;;;;;;;;2070781;28;20409;-75
2023/10/13 01:01:45;;;;;;;21.42;11.18;;;;;;;;;;2069369;28;20467;-75
2023/10/13 01:03:06;;;;;;;22.80;11.68;;;;;;;;;;2068931;28;20030;-75
2023/10/13 01:04:31;;;;;;;22.38;10.70;;;;;;;;;;2072834;28;20053;-76
2023/10/13 01:05:54;;;;;;;20.77;10.45;;;;;;;;;;2072475;28;20041;-75
2023/10/13 01:07:22;;;;;;;21.73;11.10;;;;;;;;;;2081413;28;20092;-75
2023/10/13 01:08:50;;;;;;;19.75;11.15;;;;;;;;;;2075040;28;20038;-75
2023/10/13 01:10:15;;;;;;;17.05;9.75;;;;;;;;;;2071839;28;20046;-75
2023/10/13 01:11:37;;;;;;;20.30;9.77;;;;;;;;;;2073733;28;20038;-76
2023/10/13 01:12:59;;;;;;;19.40;10.40;;;;;;;;;;2072042;28;20030;-75
2023/10/13 01:14:20;;;;;;;19.50;9.52;;;;;;;;;;2064053;28;20026;-75
2023/10/13 01:15:41;;;;;;;17.97;9.80;;;;;;;;;;2069243;28;20030;-76
2023/10/13 01:17:03;;;;;;;19.92;9.75;;;;;;;;;;2072242;28;20439;-75
2023/10/13 01:18:28;;;;;;;20.70;10.82;;;;;;;;;;2063473;28;20034;-76
2023/10/13 01:19:49;;;;;;;16.67;10.40;;;;;;;;;;2078951;28;20107;-76
2023/10/13 01:21:10;;;;;;;23.63;11.07;;;;;;;;;;2084363;28;20037;-76
2023/10/13 01:22:32;;;;;;;19.52;10.75;;;;;;;;;;2086290;28;20029;-75
2023/10/13 01:23:52;;;;;;;;;;;;;;;;;;2081742;28;20404;-76
2023/10/13 01:25:19;;;;;;;14.75;9.70;;;;;;;;;;2084362;28;19917;-76
2023/10/13 01:26:41;;;;;;;17.88;10.57;;;;;;;;;;2080613;28;20033;-76
2023/10/13 01:28:02;;;;;;;21.38;9.90;;;;;;;;;;2071913;28;20393;-75
2023/10/13 01:29:28;;;;;;;18.58;10.18;;;;;;;;;;2079841;28;20412;-75
2023/10/13 01:30:53;;;;;;;17.70;9.95;;;;;;;;;;2074357;28;20160;-76
2023/10/13 01:32:14;;;;;;;16.77;9.65;;;;;;;;;;2079373;28;20492;-76
2023/10/13 01:33:35;;;;;;;19.88;9.93;;;;;;;;;;2081270;28;20040;-76
2023/10/13 01:34:57;;;;;;;17.35;10.15;;;;;;;;;;2072933;28;20059;-76
2023/10/13 01:36:19;;;;;;;15.65;9.70;;;;;;;;;;2084840;28;20138;-75
2023/10/13 01:37:39;;;;;;;26.77;10.23;;;;;;;;;;2089639;28;20427;-75
2023/10/13 01:39:01;;;;;;;20.20;10.23;;;;;;;;;;2082763;28;20048;-75
2023/10/13 01:40:28;;;;;;;20.05;11.60;;;;;;;;;;2087095;28;20090;-75
2023/10/13 01:41:55;;;;;;;18.02;9.55;;;;;;;;;;2079239;28;20041;-76
2023/10/13 01:43:17;;;;;;;20.42;9.77;;;;;;;;;;2088713;28;20037;-76
2023/10/13 01:44:38;;;;;;;17.08;9.90;;;;;;;;;;2083219;28;20033;-75
2023/10/13 01:45:59;;;;;;;19.50;10.98;;;;;;;;;;2080489;28;20033;-76
2023/10/13 01:47:22;;;;;;;19.90;10.02;;;;;;;;;;2081184;28;20452;-76
2023/10/13 01:48:44;;;;;;;19.27;10.35;;;;;;;;;;2080105;28;20033;-76
2023/10/13 01:50:19;;;;;;;;;;;;;;;;;;2096243;28;20511;-75
2023/10/13 01:51:40;;;;;;;18.50;9.07;;;;;;;;;;2081491;28;19917;-76
2023/10/13 01:53:13;;;;;;;16.92;8.95;;;;;;;;;;2087172;28;20040;-75
2023/10/13 01:54:33;;;;;;;13.68;8.65;;;;;;;;;;2089125;28;20037;-76
2023/10/13 01:55:57;;;;;;;18.17;8.82;;;;;;;;;;2082928;28;20038;-75
2023/10/13 01:57:18;;;;;;;18.13;8.85;;;;;;;;;;2082087;28;20022;-78
2023/10/13 01:58:42;;;;;;;18.38;9.68;;;;;;;;;;2080413;28;20489;-78
2023/10/13 02:00:11;;;;;;;17.52;9.30;;;;;;;;;;2087331;28;20033;-79
2023/10/13 02:01:35;;;;;;;19.65;9.77;;;;;;;;;;2080770;28;20151;-79
2023/10/13 02:02:59;;;;;;;16.13;9.10;;;;;;;;;;2075293;28;20034;-79
2023/10/13 02:04:21;;;;;;;22.20;10.80;;;;;;;;;;2072552;28;20033;-79
2023/10/13 02:05:48;;;;;;;14.60;9.27;;;;;;;;;;2075860;28;20083;-79
2023/10/13 02:07:14;;;;;;;19.73;8.77;;;;;;;;;;2074084;28;20149;-79
2023/10/13 02:08:39;;;;;;;15.10;8.70;;;;;;;;;;2071621;28;20029;-80
2023/10/13 02:10:05;;;;;;;17.13;8.95;;;;;;;;;;2072751;28;20040;-79
2023/10/13 02:11:26;;;;;;;16.20;8.23;;;;;;;;;;2087193;28;20470;-79
2023/10/13 02:12:47;;;;;;;22.98;9.43;;;;;;;;;;2079236;28;20030;-77
2023/10/13 02:14:11;;;;;;;15.32;8.65;;;;;;;;;;2066811;28;20031;-78
2023/10/13 02:15:34;;;;;;;19.73;9.80;;;;;;;;;;2080954;28;20042;-79
2023/10/13 02:16:56;;;;;;;15.38;9.00;;;;;;;;;;2080331;28;20037;-79
2023/10/13 02:18:27;;;;;;;16.05;7.75;;;;;;;;;;2072774;28;20034;-80
2023/10/13 02:19:48;;;;;;;14.93;9.30;;;;;;;;;;2066445;28;20030;-80
2023/10/13 02:21:15;;;;;;;15.13;8.63;;;;;;;;;;2078072;28;20408;-79
2023/10/13 02:22:38;;;;;;;13.73;8.10;;;;;;;;;;2088822;28;20032;-79
2023/10/13 02:24:04;;;;;;;16.92;8.80;;;;;;;;;;2083812;28;20034;-78
2023/10/13 02:25:43;;;;;;;17.30;9.23;;;;;;;;;;2081136;28;20029;-78
2023/10/13 02:27:05;;;;;;;16.98;8.23;;;;;;;;;;2072966;28;20029;-79
2023/10/13 02:28:33;;;;;;;14.93;9.43;;;;;;;;;;2070748;28;20030;-79
2023/10/13 02:30:00;;;;;;;17.20;9.77;;;;;;;;;;2077843;28;20030;-78
2023/10/13 02:31:24;;;;;;;18.85;9.02;;;;;;;;;;2074080;28;20494;-79
2023/10/13 02:32:44;;;;;;;20.23;9.55;;;;;;;;;;2078814;28;20029;-79
2023/10/13 02:34:09;;;;;;;16.95;9.23;;;;;;;;;;2076068;28;20030;-79
2023/10/13 02:35:31;;;;;;;17.90;9.23;;;;;;;;;;2080826;28;20033;-78
2023/10/13 02:36:53;;;;;;;19.85;9.45;;;;;;;;;;2081049;28;20065;-78
2023/10/13 02:38:16;;;;;;;17.23;9.90;;;;;;;;;;2068765;28;20038;-78
2023/10/13 02:39:41;;;;;;;21.25;9.75;;;;;;;;;;2081278;28;20033;-78
2023/10/13 02:41:08;;;;;;;19.98;9.80;;;;;;;;;;2077502;28;20041;-78
2023/10/13 02:42:29;;;;;;;19.98;10.00;;;;;;;;;;2074572;28;20029;-79
2023/10/13 02:43:49;;;;;;;20.92;10.25;;;;;;;;;;2075041;28;20520;-78
2023/10/13 02:45:12;;;;;;;19.15;10.27;;;;;;;;;;2072277;28;20121;-77
2023/10/13 02:46:36;;;;;;;25.08;11.45;;;;;;;;;;2082608;28;20107;-78
2023/10/13 02:48:17;;;;;;;27.20;11.52;;;;;;;;;;2072062;28;20030;-77
2023/10/13 02:49:42;;;;;;;23.58;10.82;;;;;;;;;;2067361;28;20030;-78
2023/10/13 02:51:06;;;;;;;19.50;10.23;;;;;;;;;;2076989;28;20033;-78
2023/10/13 02:52:27;;;;;;;24.15;11.95;;;;;;;;;;2077074;28;20033;-77
2023/10/13 02:53:48;;;;;;;23.98;12.07;;;;;;;;;;2073080;28;20030;-77
2023/10/13 02:55:13;;;;;;;27.30;12.02;;;;;;;;;;2066033;28;20034;-77
2023/10/13 02:56:35;;;;;;;21.40;11.57;;;;;;;;;;2085376;28;20033;-77
2023/10/13 02:57:56;;;;;;;;;;;;;;;;;;2074413;28;20496;-77
2023/10/13 02:59:33;;;;;;;25.77;12.63;;;;;;;;;;2080419;28;20340;-77
2023/10/13 03:00:54;;;;;;;24.60;13.15;;;;;;;;;;2075292;28;20042;-77
2023/10/13 03:02:29;;;;;;;26.90;12.70;;;;;;;;;;2075164;28;20049;-77
2023/10/13 03:03:58;;;;;;;24.55;12.95;;;;;;;;;;2080741;28;20026;-77
2023/10/13 03:05:19;;;;;;;23.40;12.90;;;;;;;;;;2080492;28;20034;-77
2023/10/13 03:06:40;;;;;;;24.98;13.13;;;;;;;;;;2080087;28;20430;-78
2023/10/13 03:08:04;;;;;;;27.57;13.80;;;;;;;;;;2077063;28;20021;-75
2023/10/13 03:09:25;;;;;;;24.10;12.30;;;;;;;;;;2077976;28;20746;-76
2023/10/13 03:10:50;;;;;;;32.78;14.18;;;;;;;;;;2077692;28;20025;-76
2023/10/13 03:12:11;;;;;;;25.02;13.48;;;;;;;;;;2071069;28;20042;-75
2023/10/13 03:13:34;;;;;;;29.45;14.05;;;;;;;;;;2072784;28;20034;-75
2023/10/13 03:14:57;;;;;;;27.48;14.27;;;;;;;;;;2080704;28;20037;-75
2023/10/13 03:16:19;;;;;;;33.22;14.18;;;;;;;;;;2077829;28;20034;-75
2023/10/13 03:17:43;;;;;;;27.55;14.00;;;;;;;;;;2072001;28;20500;-76
2023/10/13 03:19:07;;;;;;;28.90;14.98;;;;;;;;;;2072786;28;20030;-75
2023/10/13 03:20:35;;;;;;;35.50;16.02;;;;;;;;;;2071629;28;20026;-75
2023/10/13 03:21:57;;;;;;;37.30;14.77;;;;;;;;;;2089682;28;20037;-75
2023/10/13 03:23:18;;;;;;;29.45;14.30;;;;;;;;;;2078659;28;20026;-75
2023/10/13 03:24:46;;;;;;;28.15;13.05;;;;;;;;;;2090352;28;20170;-76
2023/10/13 03:26:09;;;;;;;29.73;14.55;;;;;;;;;;2073378;28;20440;-75
2023/10/13 03:27:40;;;;;;;33.53;15.60;;;;;;;;;;2074085;28;20052;-76
2023/10/13 03:29:03;;;;;;;35.65;16.23;;;;;;;;;;2081839;28;20033;-75
2023/10/13 03:30:34;;;;;;;32.33;15.25;;;;;;;;;;2081061;28;20041;-75
2023/10/13 03:32:06;;;;;;;36.15;16.52;;;;;;;;;;2072756;28;20026;-75
2023/10/13 03:33:27;;;;;;;36.33;15.65;;;;;;;;;;2065053;28;20030;-75
2023/10/13 03:36:56;;;;;;;40.78;16.98;;;;;;;;;;2078636;28;20045;-75
2023/10/13 03:37:56;;;;;;;32.42;16.40;;;;;;;;;;2073827;28;20402;-75
2023/10/13 03:39:17;;;;;;;37.58;18.60;;;;;;;;;;2073849;28;20434;-75
2023/10/13 03:40:40;;;;;;;34.80;16.30;;;;;;;;;;2074623;28;20042;-75
2023/10/13 03:42:05;;;;;;;;;;;;;;;;;;2082908;28;20041;-75
2023/10/13 03:43:29;;;;;;;35.25;17.95;;;;;;;;;;2079832;28;19932;-75
2023/10/13 03:44:51;;;;;;;36.88;16.92;;;;;;;;;;2075707;28;20018;-75
2023/10/13 03:46:12;;;;;;;38.28;17.65;;;;;;;;;;2077185;28;20517;-75
2023/10/13 03:47:33;;;;;;;38.28;17.90;;;;;;;;;;2073711;28;20033;-74
2023/10/13 03:49:01;;;;;;;33.40;16.95;;;;;;;;;;2081397;28;20044;-75
2023/10/13 03:50:29;;;;;;;39.58;19.05;;;;;;;;;;2074228;28;20022;-75
2023/10/13 03:51:54;;;;;;;41.20;18.05;;;;;;;;;;2074905;28;20393;-75
2023/10/13 03:53:15;;;;;;;34.40;16.77;;;;;;;;;;2066493;28;20031;-75
2023/10/13 03:54:36;;;;;;;43.55;19.60;;;;;;;;;;2073140;28;20037;-75
2023/10/13 03:56:12;;;;;;;40.28;16.55;;;;;;;;;;2080744;28;20468;-75
2023/10/13 03:57:37;;;;;;;37.65;17.35;;;;;;;;;;2080457;28;20029;-75
2023/10/13 03:59:04;;;;;;;39.33;17.85;;;;;;;;;;2090387;28;20551;-75
2023/10/13 04:00:27;;;;;;;42.00;20.92;;;;;;;;;;2081636;28;20033;-75
2023/10/13 04:03:16;;;;;;;45.72;18.48;;;;;;;;;;2078526;28;20037;-75
2023/10/13 04:04:53;;;;;;;41.10;18.90;;;;;;;;;;2074058;28;20022;-74
2023/10/13 04:06:18;;;;;;;44.85;19.25;;;;;;;;;;2078782;28;20504;-75
2023/10/13 04:07:39;;;;;;;42.28;20.38;;;;;;;;;;2077620;28;20038;-75
2023/10/13 04:15:17;;;;;;;46.50;20.70;;;;;;;;;;2073504;28;20026;-75
2023/10/13 04:16:50;;;;;;;46.58;20.05;;;;;;;;;;2078665;28;20045;-75
2023/10/13 04:18:30;;;;;;;54.20;23.35;;;;;;;;;;2064794;28;20034;-73
2023/10/13 04:21:39;;;;;;;50.38;20.63;;;;;;;;;;2072805;28;20045;-71
2023/10/13 04:25:00;;;;;;;46.40;20.48;;;;;;;;;;2074207;28;20046;-70
2023/10/13 04:26:09;;;;;;;58.05;26.98;;;;;;;;;;2073253;28;20030;-71
2023/10/13 04:27:39;;;;;;;44.13;19.63;;;;;;;;;;2071726;28;20030;-72
2023/10/13 04:29:09;;;;;;;47.40;20.85;;;;;;;;;;2082146;28;20025;-73
2023/10/13 04:30:47;;;;;;;39.92;19.75;;;;;;;;;;2074388;28;20030;-72
2023/10/13 04:32:13;;;;;;;52.13;22.80;;;;;;;;;;2072975;28;20088;-72
2023/10/13 04:34:59;;;;;;;42.67;19.55;;;;;;;;;;2067512;28;20030;-73
2023/10/13 04:37:52;;;;;;;47.50;22.00;;;;;;;;;;2065574;28;20138;-73
2023/10/13 04:39:29;;;;;;;48.30;23.40;;;;;;;;;;2065176;28;20035;-73
2023/10/13 04:40:59;;;;;;;42.25;18.90;;;;;;;;;;2070110;28;20022;-73
2023/10/13 04:42:39;;;;;;;42.65;23.23;;;;;;;;;;2069700;28;20397;-73
2023/10/13 04:44:47;;;;;;;50.25;21.60;;;;;;;;;;2073723;28;20030;-72
2023/10/13 04:45:53;;;;;;;49.00;20.42;;;;;;;;;;2071833;28;20434;-73
2023/10/13 04:47:17;;;;;;;41.50;21.17;;;;;;;;;;2069093;28;20393;-73
2023/10/13 04:48:39;;;;;;;38.13;18.83;;;;;;;;;;2066570;28;20125;-73
2023/10/13 04:50:01;;;;;;;39.58;16.42;;;;;;;;;;2080272;28;20030;-73
2023/10/13 04:53:13;;;;;;;39.97;17.95;;;;;;;;;;2056759;28;20063;-73
2023/10/13 04:55:09;;;;;;;39.65;18.25;;;;;;;;;;2065030;28;20447;-72
2023/10/13 04:58:45;;;;;;;34.80;17.58;;;;;;;;;;2064889;28;20034;-72
2023/10/13 05:03:51;;;;;;;36.60;19.70;;;;;;;;;;2072543;28;20042;-71
2023/10/13 05:47:53;;;;;;;19.08;10.48;;;;;;;;;;2073090;28;20030;-75
2023/10/13 05:51:32;;;;;;;20.40;11.57;;;;;;;;;;2073280;28;20052;-77
2023/10/13 06:29:09;;;;;;;16.67;10.38;;;;;;;;;;2079649;28;20021;-75
2023/10/13 06:30:30;;;;;;;21.98;10.40;;;;;;;;;;2079335;28;20021;-74
2023/10/13 06:31:51;;;;;;;24.75;11.32;;;;;;;;;;2073797;28;20521;-74
2023/10/13 06:33:12;;;;;;;20.63;10.80;;;;;;;;;;2064931;28;20112;-75
2023/10/13 06:34:44;;;;;;;22.27;10.38;;;;;;;;;;2064125;28;20034;-75
2023/10/13 06:36:09;;;;;;;20.67;9.55;;;;;;;;;;2072608;28;20034;-75
2023/10/13 06:37:30;;;;;;;16.42;10.57;;;;;;;;;;2071991;28;20045;-76
2023/10/13 06:39:34;;;;;;;17.02;10.13;;;;;;;;;;2078867;28;20022;-74
2023/10/13 06:40:42;;;;;;;20.27;9.85;;;;;;;;;;2072744;28;20460;-74
2023/10/13 06:42:02;;;;;;;16.85;10.20;;;;;;;;;;2075330;28;20048;-75
2023/10/13 06:43:24;;;;;;;20.08;10.07;;;;;;;;;;2064295;28;20038;-74
2023/10/13 06:44:48;;;;;;;18.98;9.88;;;;;;;;;;2069191;28;20038;-74
2023/10/13 06:46:14;;;;;;;16.20;10.15;;;;;;;;;;2071950;28;20026;-74
2023/10/13 06:47:44;;;;;;;22.75;11.20;;;;;;;;;;2067043;28;20046;-74
2023/10/13 06:49:05;;;;;;;17.17;9.77;;;;;;;;;;2071436;28;20026;-71
2023/10/13 06:50:28;;;;;;;19.17;9.90;;;;;;;;;;2069270;28;21511;-73
2023/10/13 06:51:49;;;;;;;17.73;9.63;;;;;;;;;;2068592;28;20038;-74
2023/10/13 06:53:12;;;;;;;18.08;9.15;;;;;;;;;;2080806;28;20042;-73
2023/10/13 06:54:38;;;;;;;17.13;8.63;;;;;;;;;;2081093;28;20026;-75
2023/10/13 06:55:59;;;;;;;17.33;9.45;;;;;;;;;;2081208;28;20029;-74
2023/10/13 06:57:20;;;;;;;14.02;9.05;;;;;;;;;;2077046;28;20033;-74
2023/10/13 06:58:44;;;;;;;19.83;9.63;;;;;;;;;;2068671;28;20033;-75
2023/10/13 07:00:08;;;;;;;14.27;8.60;;;;;;;;;;2074188;28;20390;-75
2023/10/13 07:01:29;;;;;;;15.55;8.32;;;;;;;;;;2074658;28;20034;-75
2023/10/13 07:02:52;;;;;;;21.65;9.73;;;;;;;;;;2074841;28;20042;-74
2023/10/13 07:04:13;;;;;;;20.02;10.68;;;;;;;;;;2072412;28;20041;-75
2023/10/13 07:05:35;;;;;;;20.63;8.67;;;;;;;;;;2076340;28;20413;-77
2023/10/13 07:06:56;;;;;;;20.50;8.80;;;;;;;;;;2080413;28;20029;-74
2023/10/13 07:08:19;;;;;;;22.15;10.02;;;;;;;;;;2083710;28;20087;-74
2023/10/13 07:09:49;;;;;;;18.85;9.38;;;;;;;;;;2082010;28;20056;-75
2023/10/13 07:11:17;;;;;;;21.08;9.93;;;;;;;;;;2073418;28;20034;-75
2023/10/13 07:12:43;;;;;;;18.65;9.25;;;;;;;;;;2085385;28;20044;-74
2023/10/13 07:14:10;;;;;;;20.27;9.35;;;;;;;;;;2075738;28;20026;-75
2023/10/13 07:15:31;;;;;;;19.48;9.20;;;;;;;;;;2077911;28;20034;-75
2023/10/13 07:17:03;;;;;;;24.15;9.43;;;;;;;;;;2087046;28;20075;-76
2023/10/13 07:18:23;;;;;;;20.38;9.95;;;;;;;;;;2082814;28;20038;-77
2023/10/13 07:19:53;;;;;;;22.55;10.30;;;;;;;;;;2091102;28;20411;-77
2023/10/13 07:21:13;;;;;;;24.08;10.75;;;;;;;;;;2075035;28;20068;-77
2023/10/13 07:22:39;;;;;;;19.15;8.85;;;;;;;;;;2086018;28;20072;-75
2023/10/13 07:24:07;;;;;;;23.23;10.10;;;;;;;;;;2091148;28;20447;-75
2023/10/13 07:25:32;;;;;;;20.92;9.15;;;;;;;;;;2075245;28;20473;-75
2023/10/13 07:27:01;;;;;;;22.10;10.18;;;;;;;;;;2076790;28;20033;-76
2023/10/13 07:28:22;;;;;;;17.63;10.48;;;;;;;;;;2065743;28;20497;-75
2023/10/13 07:29:43;;;;;;;19.83;9.13;;;;;;;;;;2087940;28;20037;-75
2023/10/13 07:32:25;;;;;;;17.38;9.18;;;;;;;;;;2073424;28;20781;-75
2023/10/13 07:33:47;;;;;;;20.67;10.27;;;;;;;;;;2082076;28;20106;-76
2023/10/13 07:35:11;;;;;;;17.73;8.77;;;;;;;;;;2076205;28;20038;-74
2023/10/13 07:36:39;;;;;;;23.60;10.82;;;;;;;;;;2073909;28;20424;-73
2023/10/13 07:38:00;;;;;;;22.23;8.95;;;;;;;;;;2084421;28;20033;-75
2023/10/13 07:39:23;;;;;;;18.08;9.25;;;;;;;;;;2076847;28;20022;-73
2023/10/13 07:40:51;;;;;;;22.08;9.18;;;;;;;;;;2074682;28;20041;-72
2023/10/13 07:42:21;;;;;;;18.50;9.60;;;;;;;;;;2073502;28;20056;-72
2023/10/13 07:43:44;;;;;;;17.05;8.23;;;;;;;;;;2080184;28;20029;-72
2023/10/13 07:45:06;;;;;;;19.88;8.10;;;;;;;;;;2082511;28;20079;-74
2023/10/13 07:46:31;;;;;;;20.75;9.00;;;;;;;;;;2081727;28;20075;-76
2023/10/13 07:47:52;;;;;;;14.60;8.23;;;;;;;;;;2082350;28;20084;-75
2023/10/13 07:49:12;;;;;;;24.30;9.18;;;;;;;;;;2081071;28;20026;-77
2023/10/13 07:50:34;;;;;;;19.48;8.50;;;;;;;;;;2089728;28;20017;-74
2023/10/13 07:51:57;;;;;;;21.70;9.07;;;;;;;;;;2085931;28;20097;-75
2023/10/13 07:53:23;;;;;;;20.13;9.40;;;;;;;;;;2075130;28;20377;-76
2023/10/13 07:54:49;;;;;;;21.63;10.15;;;;;;;;;;2076467;28;20385;-76
2023/10/13 07:56:11;;;;;;;21.45;9.73;;;;;;;;;;2081707;28;20034;-77
2023/10/13 07:57:32;;;;;;;22.60;9.15;;;;;;;;;;2079723;28;20029;-77
2023/10/13 07:59:00;;;;;;;20.92;8.40;;;;;;;;;;2077558;28;20392;-76
2023/10/13 08:02:48;;;;;;;19.40;7.97;;;;;;;;;;2081723;28;20030;-76
2023/10/13 08:04:04;;;;;;;17.65;8.63;;;;;;;;;;2082747;28;20480;-76
2023/10/13 08:05:39;;;;;;;17.77;8.32;;;;;;;;;;2081892;28;20041;-76
2023/10/13 08:07:12;;;;;;;18.70;8.55;;;;;;;;;;2081713;28;20037;-74
2023/10/13 08:08:39;;;;;;;20.98;8.57;;;;;;;;;;2073879;28;20480;-76
2023/10/13 08:10:00;;;;;;;24.48;9.13;;;;;;;;;;2082542;28;20497;-74
2023/10/13 08:12:45;;;;;;;18.58;8.35;;;;;;;;;;2074812;28;20038;-78
2023/10/13 08:14:12;;;;;;;23.40;8.70;;;;;;;;;;2072385;28;20030;-76
2023/10/13 08:15:33;;;;;;;19.90;7.75;;;;;;;;;;2069020;28;20025;-75
2023/10/13 08:17:00;;;;;;;21.85;8.43;;;;;;;;;;2087187;28;20037;-77
2023/10/13 08:18:30;;;;;;;20.05;7.50;;;;;;;;;;2076201;28;20030;-77
2023/10/13 08:19:51;;;;;;;21.55;8.48;;;;;;;;;;2081801;28;20030;-76
2023/10/13 08:21:16;;;;;;;16.63;7.22;;;;;;;;;;2077264;28;20505;-77
2023/10/13 08:22:38;;;;;;;19.85;7.63;;;;;;;;;;2073397;28;20038;-76
2023/10/13 08:23:59;;;;;;;17.60;7.60;;;;;;;;;;2066106;28;20022;-74
2023/10/13 08:25:20;;;;;;;21.88;8.38;;;;;;;;;;2077887;28;20021;-76
2023/10/13 08:26:57;;;;;;;16.25;7.40;;;;;;;;;;2076225;28;20393;-78
2023/10/13 08:28:46;;;;;;;18.60;7.75;;;;;;;;;;2065989;28;20038;-71
2023/10/13 08:33:32;;;;;;;19.45;7.53;;;;;;;;;;2062497;28;20043;-71
2023/10/13 08:36:30;;;;;;;17.37;6.87;;;;;;;;;;2085206;28;20040;-72
2023/10/13 08:42:52;;;;;;;17.10;7.78;;;;;;;;;;2072296;28;20042;-71
2023/10/13 08:44:31;;;;;;;17.52;6.53;;;;;;;;;;2080775;28;20033;-72
2023/10/13 08:45:58;;;;;;;21.83;7.60;;;;;;;;;;2072295;28;20517;-79
2023/10/13 08:47:21;;;;;;;22.80;8.68;;;;;;;;;;2072130;28;20041;-76
2023/10/13 08:48:47;;;;;;;17.90;7.53;;;;;;;;;;2067992;28;20033;-77
2023/10/13 08:50:31;;;;;;;23.13;8.02;;;;;;;;;;2083750;28;20025;-81
2023/10/13 08:52:05;;;;;;;18.95;8.75;;;;;;;;;;2073142;28;20026;-78
2023/10/13 08:55:04;;;;;;;14.60;6.40;;;;;;;;;;2068495;28;20033;-76
2023/10/13 08:56:35;;;;;;;15.60;7.78;;;;;;;;;;2071931;28;20493;-76
2023/10/13 08:58:02;;;;;;;22.13;7.28;;;;;;;;;;2073878;28;20386;-77
2023/10/13 08:59:38;;;;;;;22.00;7.68;;;;;;;;;;2074053;28;20038;-80
2023/10/13 09:01:11;;;;;;;19.83;7.32;;;;;;;;;;2072103;28;20485;-80
2023/10/13 09:02:59;;;;;;;18.38;7.18;;;;;;;;;;2080826;28;20595;-87
2023/10/13 09:04:21;;;;;;;15.50;7.40;;;;;;;;;;2071767;28;20057;-84
2023/10/13 09:05:43;;;;;;;18.75;7.18;;;;;;;;;;2082280;28;20037;-83
2023/10/13 09:10:32;;;;;;;20.40;7.18;;;;;;;;;;2074086;28;20485;-84
2023/10/13 09:12:07;;;;;;;14.13;8.07;;;;;;;;;;2074831;28;20026;-85
2023/10/13 09:13:43;;;;;;;15.73;7.13;;;;;;;;;;2089629;28;20384;-86
2023/10/13 09:15:17;;;;;;;19.17;7.88;;;;;;;;;;2075875;28;20033;-85
2023/10/13 09:18:15;;;;;;;12.30;6.40;;;;;;;;;;2083465;28;20480;-82
2023/10/13 09:19:55;;;;;;;21.63;7.88;;;;;;;;;;2068082;28;20109;-82
2023/10/13 09:21:29;;;;;;;18.48;7.65;;;;;;;;;;2088771;28;20044;-83
2023/10/13 09:24:27;;;;;;;19.60;8.13;;;;;;;;;;2072567;28;20486;-82
2023/10/13 09:25:57;;;;;;;19.30;8.07;;;;;;;;;;2071281;28;20429;-78
2023/10/13 09:27:18;;;;;;;15.05;7.18;;;;;;;;;;2074975;28;20042;-87
2023/10/13 09:28:39;;;;;;;16.80;6.63;;;;;;;;;;2075110;28;20026;-80
2023/10/13 09:30:34;;;;;;;15.15;7.65;;;;;;;;;;2075410;28;20481;-82
2023/10/13 09:31:59;;;;;;;15.95;7.45;;;;;;;;;;2074450;28;20045;-83
2023/10/13 09:33:28;;;;;;;16.05;8.38;;;;;;;;;;2065403;28;20034;-81
2023/10/13 09:34:50;;;;;;;18.00;7.47;;;;;;;;;;2073764;28;20504;-81
2023/10/13 09:36:12;;;;;;;;;;;;;;;;;;2081697;28;20246;-81
2023/10/13 09:37:37;;;;;;;17.40;7.63;;;;;;;;;;2083865;28;19927;-83
2023/10/13 09:39:29;;;;;;;18.27;8.73;;;;;;;;;;2076797;28;20029;-81
2023/10/13 09:40:49;;;;;;;16.98;8.45;;;;;;;;;;2071729;28;20085;-79
2023/10/13 09:42:12;;;;;;;17.23;8.75;;;;;;;;;;2084076;28;20467;-80
2023/10/13 09:43:33;;;;;;;15.55;7.38;;;;;;;;;;2075679;28;20041;-82
2023/10/13 09:44:59;;;;;;;17.85;7.72;;;;;;;;;;2071526;28;20030;-81
2023/10/13 09:46:23;;;;;;;20.38;8.45;;;;;;;;;;2074481;28;20079;-81
2023/10/13 09:47:52;;;;;;;19.02;8.15;;;;;;;;;;2076241;28;20030;-78
2023/10/13 09:49:33;;;;;;;19.10;7.82;;;;;;;;;;2075377;28;20091;-78
2023/10/13 09:50:59;;;;;;;15.30;7.47;;;;;;;;;;2071212;28;20049;-79
2023/10/13 09:52:20;;;;;;;18.98;8.85;;;;;;;;;;2074950;28;20026;-76
2023/10/13 09:53:44;;;;;;;17.73;8.27;;;;;;;;;;2074425;28;20034;-77
2023/10/13 09:55:13;;;;;;;19.08;8.48;;;;;;;;;;2074263;28;20427;-80
2023/10/13 09:56:51;;;;;;;17.70;7.60;;;;;;;;;;2073431;28;20282;-81
2023/10/13 09:58:17;;;;;;;17.90;7.28;;;;;;;;;;2073915;28;20072;-81
2023/10/13 09:59:57;;;;;;;17.40;7.65;;;;;;;;;;2073204;28;20489;-78
2023/10/13 10:01:30;;;;;;;18.58;7.97;;;;;;;;;;2072631;28;20033;-80
2023/10/13 10:02:57;;;;;;;17.45;9.45;;;;;;;;;;2078432;28;20036;-78
2023/10/13 10:04:19;;;;;;;16.10;8.27;;;;;;;;;;2079577;28;20415;-80
2023/10/13 10:05:49;;;;;;;17.08;7.05;;;;;;;;;;2089807;28;20041;-80
2023/10/13 10:07:10;;;;;;;19.38;7.15;;;;;;;;;;2082314;28;20037;-80
2023/10/13 10:08:38;;;;;;;16.57;6.83;;;;;;;;;;2081371;28;20572;-80
2023/10/13 10:10:00;;;;;;;23.58;8.05;;;;;;;;;;2075305;28;20480;-77
2023/10/13 10:11:27;;;;;;;15.52;8.57;;;;;;;;;;2078892;28;20048;-77
2023/10/13 10:12:55;;;;;;;18.63;8.07;;;;;;;;;;2083281;28;20040;-75
2023/10/13 10:14:19;;;;;;;17.58;7.72;;;;;;;;;;2080923;28;20447;-78
2023/10/13 10:15:43;;;;;;;17.15;7.75;;;;;;;;;;2081600;28;20034;-78
2023/10/13 10:17:08;;;;;;;17.83;7.82;;;;;;;;;;2082328;28;20034;-78
2023/10/13 10:18:29;;;;;;;18.05;7.85;;;;;;;;;;2082650;28;20029;-78
2023/10/13 10:19:54;;;;;;;18.70;7.03;;;;;;;;;;2078409;28;20046;-78
2023/10/13 10:21:16;;;;;;;17.60;7.35;;;;;;;;;;2081522;28;20042;-78
2023/10/13 10:22:37;;;;;;;22.42;7.57;;;;;;;;;;2088394;28;20539;-78
2023/10/13 10:23:58;;;;;;;28.77;7.35;;;;;;;;;;2082838;28;20396;-75
2023/10/13 10:25:28;;;;;;;23.30;8.57;;;;;;;;;;2080939;28;20029;-76
2023/10/13 10:26:52;;;;;;;17.52;7.32;;;;;;;;;;2087834;28;20032;-76
2023/10/13 10:28:15;;;;;;;19.13;8.07;;;;;;;;;;2074978;28;20033;-76
2023/10/13 10:29:36;;;;;;;20.83;8.07;;;;;;;;;;2073887;28;20400;-76
2023/10/13 10:31:04;;;;;;;17.83;7.53;;;;;;;;;;2078499;28;20030;-75
2023/10/13 10:32:34;;;;;;;13.73;7.85;;;;;;;;;;2077063;28;20069;-75
2023/10/13 10:33:56;;;;;;;17.92;6.78;;;;;;;;;;2088990;28;20029;-78